CGMAE CYKF-ZZZZ
Flight info
| Callsign | CGMAE |
|---|---|
| Flight time | N/A |
| Altitude | |
| Route | |
| Aircraft | C208 |
Departure
| Time | 2026-05-06 00:13 |
|---|---|
| Airport | Region of Waterloo International Airport (CYKF) |
Arrival
| Time | N/A |
|---|---|
| Airport | ZZZZ |
| Time | Latitude | Longitude | Altitude | Speed | Heading |
|---|---|---|---|---|---|
| 2026-05-06 00:07 | 43.45587 | -80.38815 | 1033 ft | 0 kts | 331° |
| 2026-05-06 00:08 | 43.45660 | -80.38862 | 1033 ft | 9 kts | 3° |
| 2026-05-06 00:08 | 43.45688 | -80.38811 | 1033 ft | 8 kts | 62° |
| 2026-05-06 00:08 | 43.45710 | -80.38739 | 1034 ft | 9 kts | 67° |
| 2026-05-06 00:09 | 43.45764 | -80.38583 | 1035 ft | 29 kts | 64° |
| 2026-05-06 00:09 | 43.45848 | -80.38329 | 1036 ft | 29 kts | 66° |
| 2026-05-06 00:09 | 43.45930 | -80.38088 | 1040 ft | 26 kts | 65° |
| 2026-05-06 00:09 | 43.45977 | -80.37945 | 1042 ft | 25 kts | 65° |
| 2026-05-06 00:10 | 43.46067 | -80.37675 | 1046 ft | 22 kts | 63° |
| 2026-05-06 00:10 | 43.46131 | -80.37490 | 1048 ft | 21 kts | 65° |
| 2026-05-06 00:10 | 43.46190 | -80.37313 | 1051 ft | 20 kts | 66° |
| 2026-05-06 00:10 | 43.46228 | -80.37199 | 1052 ft | 20 kts | 64° |
| 2026-05-06 00:11 | 43.46304 | -80.36978 | 1055 ft | 18 kts | 68° |
| 2026-05-06 00:11 | 43.46356 | -80.36822 | 1057 ft | 18 kts | 65° |
| 2026-05-06 00:11 | 43.46405 | -80.36673 | 1059 ft | 17 kts | 65° |
| 2026-05-06 00:11 | 43.46466 | -80.36574 | 1061 ft | 13 kts | 20° |
| 2026-05-06 00:12 | 43.46523 | -80.36562 | 1062 ft | 13 kts | 352° |
| 2026-05-06 00:12 | 43.46586 | -80.36619 | 1061 ft | 12 kts | 280° |
| 2026-05-06 00:12 | 43.46555 | -80.36739 | 1058 ft | 15 kts | 243° |
| 2026-05-06 00:12 | 43.46439 | -80.37092 | 1053 ft | 78 kts | 249° |
| 2026-05-06 00:13 | 43.46184 | -80.37922 | 1311 ft | 108 kts | 245° |
| 2026-05-06 00:13 | 43.45862 | -80.38931 | 1586 ft | 119 kts | 252° |
| 2026-05-06 00:13 | 43.45966 | -80.40041 | 1865 ft | 121 kts | 292° |
| 2026-05-06 00:13 | 43.46255 | -80.41127 | 2156 ft | 121 kts | 296° |
| 2026-05-06 00:14 | 43.46661 | -80.42143 | 2400 ft | 123 kts | 297° |
| 2026-05-06 00:14 | 43.47077 | -80.43235 | 2607 ft | 131 kts | 298° |
| 2026-05-06 00:14 | 43.47577 | -80.44266 | 2853 ft | 134 kts | 320° |
| 2026-05-06 00:14 | 43.48341 | -80.45002 | 3116 ft | 135 kts | 322° |
| 2026-05-06 00:15 | 43.49109 | -80.45770 | 3370 ft | 136 kts | 322° |
| 2026-05-06 00:15 | 43.49873 | -80.46521 | 3671 ft | 133 kts | 322° |
| 2026-05-06 00:15 | 43.50636 | -80.47256 | 3914 ft | 135 kts | 323° |
| 2026-05-06 00:15 | 43.51408 | -80.47992 | 4172 ft | 134 kts | 322° |
| 2026-05-06 00:16 | 43.52172 | -80.48708 | 4422 ft | 133 kts | 323° |
| 2026-05-06 00:16 | 43.52956 | -80.49438 | 4505 ft | 141 kts | 323° |
| 2026-05-06 00:16 | 43.53794 | -80.50214 | 4521 ft | 149 kts | 323° |
| 2026-05-06 00:16 | 43.53896 | -80.50308 | 4512 ft | 150 kts | 323° |
| 2026-05-06 00:17 | 43.54249 | -80.50634 | 4521 ft | 151 kts | 323° |
| 2026-05-06 00:17 | 43.55128 | -80.51450 | 4515 ft | 154 kts | 323° |
| 2026-05-06 00:17 | 43.56021 | -80.52288 | 4518 ft | 155 kts | 323° |
| 2026-05-06 00:18 | 43.56904 | -80.53116 | 4520 ft | 156 kts | 323° |
| 2026-05-06 00:18 | 43.57808 | -80.53962 | 4520 ft | 156 kts | 323° |
| 2026-05-06 00:18 | 43.58707 | -80.54801 | 4508 ft | 156 kts | 323° |
| 2026-05-06 00:18 | 43.59614 | -80.55614 | 4514 ft | 157 kts | 331° |
| 2026-05-06 00:19 | 43.60720 | -80.55653 | 4498 ft | 168 kts | 15° |
| 2026-05-06 00:19 | 43.61390 | -80.55233 | 4516 ft | 169 kts | 21° |